SWA377 KLAX-KOAK
Flight info
| Callsign | SWA377 |
|---|---|
| Flight time | 0h 55m |
| Altitude | 36000 |
| Route | LADYJ4 COREZ RGOOD EMZOH3 |
| Aircraft | B738/M-SDE2E3FGHIRWXY/LB1 |
Departure
| Time | 2026-04-26 03:04 |
|---|---|
| Airport | Los Angeles International Airport (KLAX) |
Arrival
| Time | 2026-04-26 04:00 |
|---|---|
| Airport | San Francisco Bay Oakland International Airport (KOAK) |
| Time | Latitude | Longitude | Altitude | Speed | Heading |
|---|---|---|---|---|---|
| 2026-04-26 02:40 | 33.94786 | -118.40174 | 94 ft | 0 kts | 141° |
| 2026-04-26 02:56 | 33.94805 | -118.40195 | 94 ft | 4 kts | 132° |
| 2026-04-26 02:56 | 33.94821 | -118.40221 | 93 ft | 4 kts | 110° |
| 2026-04-26 02:57 | 33.94824 | -118.40246 | 95 ft | 1 kts | 82° |
| 2026-04-26 03:00 | 33.94825 | -118.40241 | 96 ft | 4 kts | 82° |
| 2026-04-26 03:00 | 33.94831 | -118.40183 | 99 ft | 8 kts | 83° |
| 2026-04-26 03:01 | 33.94839 | -118.40112 | 95 ft | 8 kts | 78° |
| 2026-04-26 03:01 | 33.94886 | -118.40079 | 98 ft | 8 kts | 9° |
| 2026-04-26 03:01 | 33.94920 | -118.40028 | 89 ft | 8 kts | 78° |
| 2026-04-26 03:01 | 33.94929 | -118.39962 | 99 ft | 7 kts | 76° |
| 2026-04-26 03:02 | 33.94947 | -118.39929 | 100 ft | 3 kts | 39° |
| 2026-04-26 03:02 | 33.94951 | -118.39925 | 100 ft | 0 kts | 33° |
| 2026-04-26 03:02 | 33.94967 | -118.39915 | 101 ft | 5 kts | 22° |
| 2026-04-26 03:03 | 33.94998 | -118.39912 | 106 ft | 8 kts | 354° |
| 2026-04-26 03:03 | 33.95039 | -118.39973 | 108 ft | 8 kts | 267° |
| 2026-04-26 03:03 | 33.95038 | -118.39989 | 108 ft | 0 kts | 264° |
| 2026-04-26 03:03 | 33.95006 | -118.40299 | 109 ft | 89 kts | 263° |
| 2026-04-26 03:04 | 33.94887 | -118.41416 | 208 ft | 171 kts | 262° |
| 2026-04-26 03:04 | 33.94658 | -118.43487 | 1526 ft | 198 kts | 262° |
| 2026-04-26 03:04 | 33.94526 | -118.44594 | 2397 ft | 199 kts | 262° |
| 2026-04-26 03:04 | 33.94361 | -118.46337 | 2870 ft | 218 kts | 265° |
| 2026-04-26 03:05 | 33.94282 | -118.48206 | 3483 ft | 227 kts | 268° |
| 2026-04-26 03:05 | 33.94233 | -118.50097 | 4236 ft | 229 kts | 268° |
| 2026-04-26 03:05 | 33.94156 | -118.52015 | 5019 ft | 229 kts | 265° |
| 2026-04-26 03:05 | 33.94005 | -118.53936 | 5749 ft | 232 kts | 264° |
| 2026-04-26 03:06 | 33.93845 | -118.55883 | 6514 ft | 234 kts | 264° |
| 2026-04-26 03:06 | 33.93682 | -118.57898 | 6987 ft | 251 kts | 264° |
| 2026-04-26 03:06 | 33.93512 | -118.60028 | 7615 ft | 256 kts | 264° |
| 2026-04-26 03:06 | 33.93674 | -118.62169 | 7955 ft | 260 kts | 287° |
| 2026-04-26 03:07 | 33.94608 | -118.64073 | 7903 ft | 271 kts | 310° |
| 2026-04-26 03:07 | 33.96101 | -118.65448 | 7989 ft | 273 kts | 323° |
| 2026-04-26 03:07 | 33.97726 | -118.66662 | 8126 ft | 277 kts | 324° |
| 2026-04-26 03:07 | 33.99522 | -118.67588 | 8815 ft | 291 kts | 345° |
| 2026-04-26 03:08 | 34.01585 | -118.67689 | 9543 ft | 301 kts | 359° |
| 2026-04-26 03:08 | 34.03671 | -118.67514 | 10583 ft | 300 kts | 359° |
| 2026-04-26 03:08 | 34.05757 | -118.67348 | 11544 ft | 302 kts | 358° |
| 2026-04-26 03:08 | 34.07873 | -118.67188 | 12429 ft | 308 kts | 0° |
| 2026-04-26 03:09 | 34.10053 | -118.66795 | 13045 ft | 327 kts | 6° |
| 2026-04-26 03:09 | 34.12371 | -118.66221 | 13338 ft | 352 kts | 8° |
| 2026-04-26 03:09 | 34.14810 | -118.65580 | 13982 ft | 362 kts | 7° |
| 2026-04-26 03:09 | 34.17248 | -118.64959 | 14790 ft | 364 kts | 7° |
| 2026-04-26 03:10 | 34.19745 | -118.64351 | 15596 ft | 368 kts | 6° |
| 2026-04-26 03:10 | 34.22271 | -118.63751 | 16349 ft | 373 kts | 6° |
| 2026-04-26 03:10 | 34.24848 | -118.63349 | 17089 ft | 371 kts | 353° |
| 2026-04-26 03:10 | 34.27376 | -118.63798 | 17899 ft | 368 kts | 343° |
| 2026-04-26 03:11 | 34.29901 | -118.64420 | 18605 ft | 372 kts | 342° |
| 2026-04-26 03:11 | 34.32458 | -118.65054 | 19247 ft | 377 kts | 343° |
| 2026-04-26 03:11 | 34.35049 | -118.65674 | 19920 ft | 381 kts | 343° |
| 2026-04-26 03:11 | 34.37669 | -118.66281 | 20556 ft | 385 kts | 343° |
| 2026-04-26 03:12 | 34.40320 | -118.66886 | 21211 ft | 389 kts | 343° |
| 2026-04-26 03:12 | 34.42959 | -118.67627 | 21839 ft | 387 kts | 333° |
| 2026-04-26 03:12 | 34.45324 | -118.69118 | 22482 ft | 383 kts | 323° |
| 2026-04-26 03:12 | 34.47619 | -118.70800 | 22938 ft | 387 kts | 323° |
| 2026-04-26 03:13 | 34.49925 | -118.72496 | 22923 ft | 387 kts | 323° |
| 2026-04-26 03:13 | 34.52212 | -118.74147 | 22929 ft | 387 kts | 324° |
| 2026-04-26 03:13 | 34.54532 | -118.75797 | 22936 ft | 386 kts | 324° |
| 2026-04-26 03:13 | 34.56886 | -118.77461 | 22931 ft | 386 kts | 324° |
| 2026-04-26 03:14 | 34.59176 | -118.79080 | 22923 ft | 385 kts | 324° |
| 2026-04-26 03:14 | 34.61491 | -118.80717 | 22921 ft | 385 kts | 324° |
| 2026-04-26 03:14 | 34.63804 | -118.82354 | 22931 ft | 385 kts | 325° |
| 2026-04-26 03:14 | 34.66124 | -118.84000 | 22979 ft | 390 kts | 325° |
| 2026-04-26 03:15 | 34.68483 | -118.85676 | 23527 ft | 393 kts | 325° |
| 2026-04-26 03:15 | 34.70841 | -118.87349 | 24148 ft | 393 kts | 324° |
| 2026-04-26 03:15 | 34.73214 | -118.89035 | 24673 ft | 396 kts | 324° |
| 2026-04-26 03:15 | 34.75604 | -118.90734 | 25110 ft | 401 kts | 324° |
| 2026-04-26 03:16 | 34.78026 | -118.92458 | 25573 ft | 404 kts | 324° |
| 2026-04-26 03:16 | 34.80463 | -118.94193 | 26029 ft | 407 kts | 324° |
| 2026-04-26 03:16 | 34.82916 | -118.95943 | 26462 ft | 411 kts | 324° |
| 2026-04-26 03:16 | 34.85395 | -118.97714 | 26928 ft | 414 kts | 324° |
| 2026-04-26 03:17 | 34.87888 | -118.99497 | 27356 ft | 418 kts | 324° |
| 2026-04-26 03:17 | 34.90403 | -119.01296 | 27802 ft | 421 kts | 324° |
| 2026-04-26 03:17 | 34.92938 | -119.03110 | 28248 ft | 424 kts | 324° |
| 2026-04-26 03:17 | 34.95494 | -119.04941 | 28672 ft | 427 kts | 324° |
| 2026-04-26 03:18 | 34.98062 | -119.06781 | 29055 ft | 431 kts | 324° |
| 2026-04-26 03:18 | 35.00667 | -119.08649 | 29428 ft | 435 kts | 324° |
| 2026-04-26 03:18 | 35.03252 | -119.10503 | 29809 ft | 438 kts | 324° |
| 2026-04-26 03:18 | 35.05881 | -119.12388 | 30229 ft | 438 kts | 324° |
| 2026-04-26 03:19 | 35.08508 | -119.14272 | 30691 ft | 437 kts | 324° |
| 2026-04-26 03:19 | 35.11133 | -119.16155 | 31150 ft | 436 kts | 324° |
| 2026-04-26 03:19 | 35.13752 | -119.18036 | 31557 ft | 436 kts | 324° |
| 2026-04-26 03:19 | 35.16369 | -119.19920 | 31950 ft | 437 kts | 324° |
| 2026-04-26 03:20 | 35.18989 | -119.21807 | 32374 ft | 437 kts | 324° |
| 2026-04-26 03:20 | 35.21603 | -119.23690 | 32807 ft | 436 kts | 324° |
| 2026-04-26 03:20 | 35.24213 | -119.25572 | 33212 ft | 436 kts | 324° |
| 2026-04-26 03:20 | 35.26825 | -119.27458 | 33601 ft | 436 kts | 324° |
| 2026-04-26 03:21 | 35.29441 | -119.29348 | 33984 ft | 436 kts | 324° |
| 2026-04-26 03:21 | 35.32054 | -119.31237 | 34322 ft | 435 kts | 324° |
| 2026-04-26 03:21 | 35.34663 | -119.33124 | 34669 ft | 435 kts | 324° |
| 2026-04-26 03:21 | 35.37262 | -119.35006 | 35001 ft | 434 kts | 324° |
| 2026-04-26 03:22 | 35.39865 | -119.36892 | 35319 ft | 434 kts | 324° |
| 2026-04-26 03:22 | 35.42427 | -119.38750 | 35637 ft | 434 kts | 324° |
| 2026-04-26 03:22 | 35.45026 | -119.40637 | 35910 ft | 435 kts | 324° |
| 2026-04-26 03:22 | 35.47646 | -119.42542 | 35896 ft | 439 kts | 324° |
| 2026-04-26 03:23 | 35.52898 | -119.46358 | 35904 ft | 435 kts | 324° |
| 2026-04-26 03:23 | 35.57898 | -119.50343 | 35920 ft | 425 kts | 316° |
| 2026-04-26 03:24 | 35.62412 | -119.55027 | 35919 ft | 425 kts | 314° |
| 2026-04-26 03:24 | 35.66904 | -119.59784 | 35918 ft | 427 kts | 314° |
| 2026-04-26 03:25 | 35.71469 | -119.64510 | 35912 ft | 429 kts | 315° |
| 2026-04-26 03:25 | 35.76057 | -119.69214 | 35906 ft | 430 kts | 315° |
| 2026-04-26 03:26 | 35.80624 | -119.73899 | 35906 ft | 430 kts | 315° |
| 2026-04-26 03:26 | 35.85214 | -119.78617 | 35899 ft | 430 kts | 315° |
| 2026-04-26 03:27 | 35.89799 | -119.83338 | 35903 ft | 429 kts | 315° |
| 2026-04-26 03:27 | 35.94229 | -119.88216 | 35900 ft | 426 kts | 311° |
| 2026-04-26 03:28 | 35.98465 | -119.93310 | 35904 ft | 424 kts | 311° |
| 2026-04-26 03:28 | 36.02688 | -119.98401 | 35904 ft | 423 kts | 311° |
| 2026-04-26 03:29 | 36.06922 | -120.03460 | 35900 ft | 423 kts | 311° |
| 2026-04-26 03:29 | 36.11157 | -120.08501 | 35905 ft | 422 kts | 312° |
| 2026-04-26 03:30 | 36.15397 | -120.13552 | 35617 ft | 426 kts | 312° |
| 2026-04-26 03:30 | 36.17527 | -120.16093 | 35267 ft | 422 kts | 312° |
| 2026-04-26 03:30 | 36.19634 | -120.18605 | 34844 ft | 419 kts | 312° |
| 2026-04-26 03:31 | 36.21729 | -120.21107 | 34417 ft | 416 kts | 312° |
| 2026-04-26 03:31 | 36.23781 | -120.23559 | 34017 ft | 415 kts | 313° |
| 2026-04-26 03:31 | 36.25850 | -120.26036 | 33557 ft | 412 kts | 313° |
| 2026-04-26 03:31 | 36.27903 | -120.28495 | 33116 ft | 409 kts | 313° |
| 2026-04-26 03:32 | 36.29943 | -120.30940 | 32701 ft | 406 kts | 313° |
| 2026-04-26 03:32 | 36.31964 | -120.33364 | 32286 ft | 403 kts | 314° |
| 2026-04-26 03:32 | 36.33968 | -120.35769 | 31894 ft | 400 kts | 314° |
| 2026-04-26 03:32 | 36.35960 | -120.38163 | 31498 ft | 397 kts | 314° |
| 2026-04-26 03:33 | 36.37933 | -120.40535 | 31113 ft | 394 kts | 314° |
| 2026-04-26 03:33 | 36.39900 | -120.42902 | 30728 ft | 392 kts | 315° |
| 2026-04-26 03:33 | 36.41849 | -120.45249 | 30344 ft | 389 kts | 315° |
| 2026-04-26 03:33 | 36.43791 | -120.47589 | 29954 ft | 388 kts | 315° |
| 2026-04-26 03:34 | 36.45719 | -120.49913 | 29498 ft | 385 kts | 315° |
| 2026-04-26 03:34 | 36.47637 | -120.52228 | 29055 ft | 383 kts | 315° |
| 2026-04-26 03:34 | 36.49536 | -120.54522 | 28685 ft | 379 kts | 315° |
| 2026-04-26 03:34 | 36.51420 | -120.56798 | 28290 ft | 375 kts | 315° |
| 2026-04-26 03:35 | 36.53260 | -120.59022 | 27911 ft | 372 kts | 315° |
| 2026-04-26 03:35 | 36.55139 | -120.61225 | 27490 ft | 370 kts | 318° |
| 2026-04-26 03:35 | 36.57063 | -120.63356 | 27082 ft | 369 kts | 319° |
| 2026-04-26 03:35 | 36.58999 | -120.65467 | 26673 ft | 370 kts | 319° |
| 2026-04-26 03:36 | 36.60933 | -120.67577 | 26260 ft | 370 kts | 319° |
| 2026-04-26 03:36 | 36.62863 | -120.69694 | 25860 ft | 370 kts | 319° |
| 2026-04-26 03:36 | 36.64766 | -120.71793 | 25454 ft | 370 kts | 319° |
| 2026-04-26 03:36 | 36.66692 | -120.73925 | 25043 ft | 370 kts | 319° |
| 2026-04-26 03:37 | 36.68611 | -120.76054 | 24638 ft | 369 kts | 319° |
| 2026-04-26 03:37 | 36.70519 | -120.78175 | 24223 ft | 367 kts | 318° |
| 2026-04-26 03:37 | 36.72421 | -120.80290 | 23825 ft | 365 kts | 318° |
| 2026-04-26 03:37 | 36.74313 | -120.82395 | 23406 ft | 364 kts | 318° |
| 2026-04-26 03:38 | 36.76201 | -120.84497 | 22935 ft | 362 kts | 318° |
| 2026-04-26 03:38 | 36.78071 | -120.86579 | 22500 ft | 359 kts | 318° |
| 2026-04-26 03:38 | 36.79934 | -120.88644 | 22094 ft | 356 kts | 318° |
| 2026-04-26 03:38 | 36.81779 | -120.90686 | 21702 ft | 353 kts | 317° |
| 2026-04-26 03:39 | 36.83609 | -120.92712 | 21306 ft | 350 kts | 317° |
| 2026-04-26 03:39 | 36.85419 | -120.94717 | 20925 ft | 347 kts | 317° |
| 2026-04-26 03:39 | 36.87215 | -120.96710 | 20536 ft | 344 kts | 317° |
| 2026-04-26 03:39 | 36.88993 | -120.98683 | 20164 ft | 341 kts | 317° |
| 2026-04-26 03:40 | 36.90751 | -121.00637 | 19790 ft | 338 kts | 317° |
| 2026-04-26 03:40 | 36.92506 | -121.02589 | 19416 ft | 335 kts | 317° |
| 2026-04-26 03:40 | 36.94222 | -121.04499 | 19053 ft | 333 kts | 317° |
| 2026-04-26 03:40 | 36.95947 | -121.06420 | 18688 ft | 331 kts | 318° |
| 2026-04-26 03:41 | 36.97662 | -121.08331 | 18327 ft | 329 kts | 317° |
| 2026-04-26 03:41 | 36.99362 | -121.10228 | 17920 ft | 327 kts | 318° |
| 2026-04-26 03:41 | 37.01056 | -121.12118 | 17524 ft | 325 kts | 318° |
| 2026-04-26 03:41 | 37.02735 | -121.13993 | 17152 ft | 322 kts | 318° |
| 2026-04-26 03:42 | 37.04400 | -121.15854 | 16792 ft | 319 kts | 319° |
| 2026-04-26 03:42 | 37.06044 | -121.17692 | 16511 ft | 314 kts | 319° |
| 2026-04-26 03:42 | 37.07670 | -121.19510 | 16157 ft | 312 kts | 319° |
| 2026-04-26 03:42 | 37.09282 | -121.21315 | 15814 ft | 310 kts | 319° |
| 2026-04-26 03:43 | 37.10886 | -121.23111 | 15467 ft | 308 kts | 319° |
| 2026-04-26 03:43 | 37.12480 | -121.24896 | 15129 ft | 306 kts | 320° |
| 2026-04-26 03:43 | 37.14059 | -121.26681 | 14771 ft | 305 kts | 319° |
| 2026-04-26 03:43 | 37.15626 | -121.28495 | 14400 ft | 305 kts | 319° |
| 2026-04-26 03:44 | 37.17159 | -121.30281 | 14024 ft | 305 kts | 319° |
| 2026-04-26 03:44 | 37.18715 | -121.32094 | 13650 ft | 305 kts | 319° |
| 2026-04-26 03:44 | 37.20270 | -121.33905 | 13231 ft | 305 kts | 319° |
| 2026-04-26 03:44 | 37.21821 | -121.35709 | 12832 ft | 303 kts | 319° |
| 2026-04-26 03:45 | 37.23349 | -121.37488 | 12437 ft | 296 kts | 318° |
| 2026-04-26 03:45 | 37.24845 | -121.39232 | 12067 ft | 290 kts | 318° |
| 2026-04-26 03:45 | 37.26314 | -121.40944 | 11719 ft | 287 kts | 317° |
| 2026-04-26 03:45 | 37.27780 | -121.42654 | 11372 ft | 285 kts | 317° |
| 2026-04-26 03:46 | 37.29226 | -121.44340 | 11023 ft | 284 kts | 317° |
| 2026-04-26 03:46 | 37.30676 | -121.46033 | 10678 ft | 283 kts | 316° |
| 2026-04-26 03:46 | 37.32097 | -121.47693 | 10338 ft | 283 kts | 316° |
| 2026-04-26 03:47 | 37.34943 | -121.51016 | 9780 ft | 272 kts | 315° |
| 2026-04-26 03:47 | 37.36348 | -121.52661 | 9339 ft | 276 kts | 315° |
| 2026-04-26 03:47 | 37.37751 | -121.54301 | 8977 ft | 275 kts | 316° |
| 2026-04-26 03:47 | 37.39154 | -121.55910 | 8727 ft | 271 kts | 316° |
| 2026-04-26 03:48 | 37.40542 | -121.57492 | 8472 ft | 268 kts | 316° |
| 2026-04-26 03:48 | 37.41916 | -121.59057 | 8225 ft | 265 kts | 316° |
| 2026-04-26 03:48 | 37.43271 | -121.60604 | 7990 ft | 261 kts | 316° |
| 2026-04-26 03:48 | 37.44536 | -121.62213 | 7759 ft | 256 kts | 307° |
| 2026-04-26 03:49 | 37.45573 | -121.64011 | 7545 ft | 251 kts | 303° |
| 2026-04-26 03:49 | 37.46560 | -121.65810 | 7338 ft | 248 kts | 303° |
| 2026-04-26 03:49 | 37.47549 | -121.67587 | 7110 ft | 246 kts | 303° |
| 2026-04-26 03:49 | 37.48529 | -121.69336 | 6928 ft | 242 kts | 303° |
| 2026-04-26 03:50 | 37.49493 | -121.71044 | 6781 ft | 237 kts | 304° |
| 2026-04-26 03:50 | 37.50443 | -121.72714 | 6620 ft | 232 kts | 303° |
| 2026-04-26 03:50 | 37.51376 | -121.74355 | 6479 ft | 228 kts | 303° |
| 2026-04-26 03:50 | 37.52282 | -121.75944 | 6310 ft | 224 kts | 303° |
| 2026-04-26 03:51 | 37.53111 | -121.77571 | 6139 ft | 218 kts | 288° |
| 2026-04-26 03:51 | 37.53379 | -121.79394 | 6045 ft | 207 kts | 276° |
| 2026-04-26 03:51 | 37.53516 | -121.80610 | 5924 ft | 209 kts | 276° |
| 2026-04-26 03:51 | 37.53804 | -121.83028 | 5719 ft | 210 kts | 276° |
| 2026-04-26 03:52 | 37.53949 | -121.84254 | 5635 ft | 209 kts | 276° |
| 2026-04-26 03:52 | 37.54161 | -121.86063 | 5485 ft | 208 kts | 276° |
| 2026-04-26 03:52 | 37.54371 | -121.87852 | 5357 ft | 204 kts | 276° |
| 2026-04-26 03:52 | 37.54579 | -121.89633 | 5195 ft | 205 kts | 276° |
| 2026-04-26 03:53 | 37.54784 | -121.91388 | 5066 ft | 205 kts | 276° |
| 2026-04-26 03:53 | 37.54991 | -121.93162 | 4939 ft | 205 kts | 276° |
| 2026-04-26 03:53 | 37.55198 | -121.94942 | 4797 ft | 206 kts | 276° |
| 2026-04-26 03:53 | 37.55405 | -121.96727 | 4651 ft | 206 kts | 276° |
| 2026-04-26 03:54 | 37.55616 | -121.98516 | 4495 ft | 205 kts | 278° |
| 2026-04-26 03:54 | 37.56192 | -122.00148 | 4373 ft | 207 kts | 303° |
| 2026-04-26 03:54 | 37.57075 | -122.01614 | 4096 ft | 211 kts | 304° |
| 2026-04-26 03:54 | 37.57927 | -122.02962 | 3845 ft | 209 kts | 306° |
| 2026-04-26 03:55 | 37.58838 | -122.04354 | 3556 ft | 202 kts | 306° |
| 2026-04-26 03:55 | 37.59717 | -122.05683 | 3287 ft | 191 kts | 307° |
| 2026-04-26 03:55 | 37.60533 | -122.06913 | 3028 ft | 177 kts | 306° |
| 2026-04-26 03:55 | 37.61323 | -122.08107 | 2800 ft | 177 kts | 306° |
| 2026-04-26 03:56 | 37.62093 | -122.09270 | 2547 ft | 166 kts | 307° |
| 2026-04-26 03:56 | 37.62790 | -122.10320 | 2348 ft | 146 kts | 305° |
| 2026-04-26 03:56 | 37.63397 | -122.11235 | 2147 ft | 130 kts | 306° |
| 2026-04-26 03:56 | 37.63954 | -122.12078 | 1984 ft | 128 kts | 306° |
| 2026-04-26 03:57 | 37.64538 | -122.12962 | 1809 ft | 133 kts | 305° |
| 2026-04-26 03:57 | 37.65129 | -122.13856 | 1631 ft | 133 kts | 305° |
| 2026-04-26 03:57 | 37.65719 | -122.14745 | 1443 ft | 130 kts | 305° |
| 2026-04-26 03:57 | 37.66298 | -122.15619 | 1263 ft | 129 kts | 306° |
| 2026-04-26 03:58 | 37.66873 | -122.16486 | 1085 ft | 130 kts | 306° |
| 2026-04-26 03:58 | 37.67454 | -122.17362 | 898 ft | 129 kts | 306° |
| 2026-04-26 03:58 | 37.68032 | -122.18232 | 703 ft | 129 kts | 306° |
| 2026-04-26 03:58 | 37.68605 | -122.19098 | 539 ft | 129 kts | 307° |
| 2026-04-26 03:59 | 37.69176 | -122.19957 | 358 ft | 127 kts | 306° |
| 2026-04-26 03:59 | 37.69744 | -122.20817 | 159 ft | 127 kts | 305° |
| 2026-04-26 03:59 | 37.70311 | -122.21667 | 48 ft | 124 kts | 306° |
| 2026-04-26 03:59 | 37.70803 | -122.22418 | 13 ft | 96 kts | 310° |
| 2026-04-26 04:00 | 37.71135 | -122.22910 | 17 ft | 48 kts | 310° |
| 2026-04-26 04:00 | 37.71302 | -122.23082 | 18 ft | 23 kts | 332° |
| 2026-04-26 04:00 | 37.71409 | -122.23136 | 16 ft | 17 kts | 344° |
| 2026-04-26 04:00 | 37.71427 | -122.23142 | 16 ft | 0 kts | 346° |
| 2026-04-26 04:02 | 37.71428 | -122.23143 | 15 ft | 2 kts | 346° |
| 2026-04-26 04:02 | 37.71451 | -122.23148 | 15 ft | 4 kts | 355° |
| 2026-04-26 04:03 | 37.71496 | -122.23113 | 17 ft | 11 kts | 66° |
| 2026-04-26 04:03 | 37.71463 | -122.23018 | 19 ft | 12 kts | 129° |
| 2026-04-26 04:03 | 37.71412 | -122.22941 | 21 ft | 11 kts | 129° |
| 2026-04-26 04:03 | 37.71355 | -122.22857 | 20 ft | 17 kts | 130° |
| 2026-04-26 04:04 | 37.71276 | -122.22740 | 21 ft | 17 kts | 131° |
| 2026-04-26 04:04 | 37.71215 | -122.22648 | 20 ft | 13 kts | 126° |
| 2026-04-26 04:04 | 37.71205 | -122.22543 | 18 ft | 13 kts | 60° |
| 2026-04-26 04:04 | 37.71256 | -122.22468 | 19 ft | 10 kts | 47° |
| 2026-04-26 04:05 | 37.71306 | -122.22400 | 18 ft | 12 kts | 47° |
| 2026-04-26 04:05 | 37.71346 | -122.22290 | 16 ft | 15 kts | 100° |
| 2026-04-26 04:05 | 37.71278 | -122.22169 | 16 ft | 17 kts | 130° |
| 2026-04-26 04:05 | 37.71188 | -122.22034 | 15 ft | 17 kts | 130° |
| 2026-04-26 04:06 | 37.71119 | -122.21930 | 16 ft | 14 kts | 130° |
| 2026-04-26 04:06 | 37.71081 | -122.21848 | 17 ft | 9 kts | 93° |
| 2026-04-26 04:06 | 37.71123 | -122.21789 | 16 ft | 10 kts | 45° |
| 2026-04-26 04:06 | 37.71133 | -122.21750 | 15 ft | 3 kts | 96° |
| 2026-04-26 04:07 | 37.71125 | -122.21726 | 15 ft | 3 kts | 114° |
| 2026-04-26 04:07 | 37.71115 | -122.21700 | 16 ft | 0 kts | 116° |
| 2026-04-26 04:07 | 37.71110 | -122.21687 | 15 ft | 4 kts | 116° |
| 2026-04-26 04:07 | 37.71109 | -122.21685 | 15 ft | 0 kts | 117° |